Time;durP1;ratioP1;P1;durP2;ratioP2;P2;SDS_P1;SDS_P2;PMS_P1;PMS_P2;Temp;Humidity;BMP_temperature;BMP_pressure;BME280_temperature;BME280_humidity;BME280_pressure;Samples;Min_cycle;Max_cycle;Signal;HPM_P1;HPM_P2
2022/04/07 00:00:07;;;;;;;2.53;1.20;;;21.90;45.50;;;;;;5119789;27;43819;-62
2022/04/07 00:02:34;;;;;;;2.80;1.70;;;22.00;45.60;;;;;;5067427;27;43773;-62
2022/04/07 00:05:02;;;;;;;2.85;1.55;;;21.90;45.50;;;;;;5053886;27;43952;-62
2022/04/07 00:07:29;;;;;;;3.80;1.55;;;22.00;45.60;;;;;;5060596;27;43415;-62
2022/04/07 00:09:57;;;;;;;2.75;1.30;;;21.90;45.60;;;;;;5053129;27;44722;-62
2022/04/07 00:12:24;;;;;;;1.63;1.20;;;21.90;45.60;;;;;;5065707;27;44058;-62
2022/04/07 00:14:52;;;;;;;2.67;1.45;;;21.90;45.60;;;;;;5060208;27;43464;-62
2022/04/07 00:17:19;;;;;;;4.10;1.58;;;21.90;45.60;;;;;;5060431;27;43529;-62
2022/04/07 00:19:47;;;;;;;2.58;1.45;;;21.90;45.60;;;;;;5122329;27;44712;-62
2022/04/07 00:22:14;;;;;;;3.50;1.55;;;21.80;45.70;;;;;;5122046;27;43484;-62
2022/04/07 00:24:42;;;;;;;2.35;1.52;;;21.80;45.70;;;;;;5134328;27;43458;-62
2022/04/07 00:27:10;;;;;;;3.50;1.48;;;21.80;45.60;;;;;;5059240;27;43441;-62
2022/04/07 00:29:37;;;;;;;2.75;1.60;;;21.80;45.70;;;;;;5113076;27;43808;-62
2022/04/07 00:32:06;;;;;;;2.22;1.40;;;21.80;45.60;;;;;;5055474;27;43433;-61
2022/04/07 00:34:34;;;;;;;3.78;1.50;;;21.80;45.70;;;;;;5052307;27;43449;-62
2022/04/07 00:37:02;;;;;;;4.05;1.48;;;21.80;45.80;;;;;;5059812;27;43576;-62
2022/04/07 00:39:30;;;;;;;1.88;1.48;;;21.80;45.80;;;;;;5068569;27;43741;-62
2022/04/07 00:41:57;;;;;;;2.40;1.10;;;21.80;45.80;;;;;;5065549;27;44234;-62
2022/04/07 00:44:27;;;;;;;2.80;1.17;;;21.80;45.70;;;;;;5060102;27;43399;-62
2022/04/07 00:46:55;;;;;;;2.03;1.50;;;21.80;45.70;;;;;;5058498;27;43412;-62
2022/04/07 00:49:23;;;;;;;2.33;1.40;;;21.80;45.70;;;;;;5070711;27;44696;-62
2022/04/07 00:51:50;;;;;;;3.03;1.45;;;21.70;45.70;;;;;;5119929;27;43401;-62
2022/04/07 00:54:18;;;;;;;2.30;1.30;;;21.70;45.70;;;;;;5134273;27;43889;-61
2022/04/07 00:56:46;;;;;;;4.10;1.63;;;21.70;45.60;;;;;;5134440;27;43417;-62
2022/04/07 00:59:16;;;;;;;2.72;1.40;;;21.70;45.70;;;;;;5076250;27;44693;-62
2022/04/07 01:01:45;;;;;;;2.55;1.50;;;21.70;45.70;;;;;;5110646;27;44880;-62
2022/04/07 01:04:14;;;;;;;3.85;1.40;;;21.70;45.70;;;;;;5059964;27;43618;-62
2022/04/07 01:06:43;;;;;;;2.80;1.35;;;21.70;45.70;;;;;;5059682;27;43526;-62
2022/04/07 01:09:11;;;;;;;2.35;1.40;;;21.70;45.70;;;;;;5074305;27;44776;-62
2022/04/07 01:11:40;;;;;;;2.42;1.30;;;21.70;45.70;;;;;;5061623;27;43710;-62
2022/04/07 01:14:07;;;;;;;3.20;1.55;;;21.70;45.70;;;;;;5059437;27;43414;-62
2022/04/07 01:16:36;;;;;;;2.95;1.63;;;21.70;45.70;;;;;;5039949;28;43583;-62
2022/04/07 01:19:04;;;;;;;3.38;1.48;;;21.60;45.70;;;;;;5070917;27;43773;-62
2022/04/07 01:21:34;;;;;;;3.58;1.80;;;21.70;45.70;;;;;;5111051;27;43392;-62
2022/04/07 01:24:04;;;;;;;2.90;1.48;;;21.60;45.70;;;;;;5039299;27;43465;-61
2022/04/07 01:26:38;;;;;;;3.80;1.60;;;21.60;45.70;;;;;;5059414;27;43541;-62
2022/04/07 01:29:08;;;;;;;3.30;1.35;;;21.60;45.70;;;;;;5066753;27;43798;-62
2022/04/07 01:31:37;;;;;;;2.03;1.35;;;21.60;45.70;;;;;;5036245;27;43451;-62
2022/04/07 01:34:09;;;;;;;3.47;1.60;;;21.60;45.80;;;;;;5108110;27;43469;-62
2022/04/07 01:36:40;;;;;;;3.42;1.60;;;21.60;45.70;;;;;;5072653;27;43482;-61
2022/04/07 01:39:09;;;;;;;3.13;1.77;;;21.60;45.80;;;;;;5057332;27;44030;-61
2022/04/07 01:41:38;;;;;;;3.40;1.73;;;21.60;45.70;;;;;;5059645;27;43976;-62
2022/04/07 01:44:07;;;;;;;2.92;1.48;;;21.60;46.40;;;;;;5059717;27;43452;-61
2022/04/07 01:46:35;;;;;;;3.15;1.73;;;21.60;45.60;;;;;;5060649;27;43589;-61
2022/04/07 01:49:03;;;;;;;3.45;1.55;;;21.50;45.60;;;;;;5048795;27;44707;-61
2022/04/07 01:51:31;;;;;;;4.18;1.80;;;21.50;45.70;;;;;;5059665;27;43980;-62
2022/04/07 01:53:59;;;;;;;3.45;1.65;;;21.50;45.70;;;;;;5059846;27;43511;-62
2022/04/07 01:56:27;;;;;;;3.78;1.67;;;21.50;45.80;;;;;;5052430;27;43506;-61
2022/04/07 01:58:54;;;;;;;3.50;1.52;;;21.50;46.40;;;;;;5061602;27;43998;-62
2022/04/07 02:01:22;;;;;;;3.70;2.00;;;21.50;45.70;;;;;;5059710;27;43694;-61
2022/04/07 02:03:50;;;;;;;3.83;1.70;;;21.50;45.70;;;;;;5059618;27;43639;-62
2022/04/07 02:06:19;;;;;;;3.70;2.08;;;21.50;45.70;;;;;;5055137;27;44083;-62
2022/04/07 02:08:46;;;;;;;4.63;1.90;;;21.50;45.70;;;;;;5060804;27;43790;-62
2022/04/07 02:11:14;;;;;;;3.85;1.80;;;21.50;45.80;;;;;;5058737;27;43705;-62
2022/04/07 02:13:42;;;;;;;4.72;1.92;;;21.50;45.70;;;;;;5059362;27;43444;-62
2022/04/07 02:16:11;;;;;;;4.65;2.00;;;21.40;45.70;;;;;;5072366;27;43557;-61
2022/04/07 02:18:39;;;;;;;3.88;1.67;;;21.40;45.70;;;;;;5060839;27;43783;-62
2022/04/07 02:21:07;;;;;;;5.57;2.13;;;21.40;45.70;;;;;;5059259;27;43500;-63
2022/04/07 02:23:41;;;;;;;3.92;1.85;;;21.40;45.70;;;;;;5059264;27;43506;-62
2022/04/07 02:26:13;;;;;;;3.75;1.80;;;21.40;45.70;;;;;;5047139;27;43571;-62
2022/04/07 02:28:41;;;;;;;4.68;2.38;;;21.40;45.70;;;;;;5049218;27;45056;-62
2022/04/07 02:31:10;;;;;;;3.85;1.80;;;21.30;45.70;;;;;;5042902;27;43742;-62
2022/04/07 02:33:37;;;;;;;3.53;1.98;;;21.30;45.80;;;;;;5069858;27;43385;-63
2022/04/07 02:36:06;;;;;;;3.83;1.85;;;21.30;45.80;;;;;;5062144;27;43467;-62
2022/04/07 02:38:35;;;;;;;6.20;2.50;;;21.30;45.80;;;;;;5057818;27;44047;-61
2022/04/07 02:41:03;;;;;;;4.60;1.95;;;21.30;45.80;;;;;;5057831;27;43656;-62
2022/04/07 02:43:31;;;;;;;4.18;2.40;;;21.30;45.70;;;;;;5072089;27;43464;-62
2022/04/07 02:45:58;;;;;;;5.88;2.45;;;21.30;45.70;;;;;;5061444;27;43458;-62
2022/04/07 02:48:26;;;;;;;4.40;1.98;;;21.30;45.80;;;;;;5060814;27;45038;-62
2022/04/07 02:50:53;;;;;;;5.82;2.45;;;21.30;45.80;;;;;;5108434;27;43472;-62
2022/04/07 02:53:21;;;;;;;6.65;2.30;;;21.30;45.70;;;;;;5080735;27;43974;-62
2022/04/07 02:55:48;;;;;;;4.20;2.10;;;21.30;45.70;;;;;;5123398;27;43580;-61
2022/04/07 02:58:16;;;;;;;6.53;2.10;;;21.30;45.70;;;;;;5136315;27;44757;-62
2022/04/07 03:00:43;;;;;;;5.78;2.60;;;21.20;45.70;;;;;;5136368;27;43589;-62
2022/04/07 03:03:11;;;;;;;4.53;2.20;;;21.20;45.80;;;;;;5081034;27;43451;-62
2022/04/07 03:05:39;;;;;;;4.95;2.60;;;21.20;45.80;;;;;;5058709;27;44119;-62
2022/04/07 03:08:06;;;;;;;4.60;2.20;;;21.20;45.90;;;;;;5061140;27;44037;-63
2022/04/07 03:10:34;;;;;;;7.40;2.30;;;21.10;45.80;;;;;;5060910;27;43501;-62
2022/04/07 03:13:01;;;;;;;6.15;2.38;;;21.10;45.80;;;;;;5075334;27;43494;-62
2022/04/07 03:15:29;;;;;;;5.68;2.35;;;21.20;45.80;;;;;;5046672;27;43462;-62
2022/04/07 03:17:56;;;;;;;4.22;2.22;;;21.20;45.80;;;;;;5060896;27;44714;-62
2022/04/07 03:20:23;;;;;;;4.75;2.20;;;21.10;45.90;;;;;;5061654;27;43388;-62
2022/04/07 03:22:51;;;;;;;5.10;2.15;;;21.10;45.90;;;;;;5079384;27;43476;-62
2022/04/07 03:25:18;;;;;;;4.63;2.10;;;21.10;46.00;;;;;;5058033;27;43491;-62
2022/04/07 03:27:46;;;;;;;4.15;2.03;;;21.10;45.90;;;;;;5061712;27;43816;-62
2022/04/07 03:30:13;;;;;;;4.78;2.30;;;21.10;45.80;;;;;;5061381;27;43456;-62
2022/04/07 03:32:41;;;;;;;3.65;2.28;;;21.10;45.90;;;;;;5055601;27;43512;-62
2022/04/07 03:35:08;;;;;;;4.82;2.20;;;21.10;45.80;;;;;;5061451;27;43514;-62
2022/04/07 03:37:36;;;;;;;6.55;2.55;;;21.10;45.80;;;;;;5062349;27;44123;-62
2022/04/07 03:40:04;;;;;;;5.72;2.35;;;21.10;46.50;;;;;;5061434;27;43412;-62
2022/04/07 03:42:31;;;;;;;5.75;2.25;;;21.10;45.90;;;;;;5075882;27;43499;-62
2022/04/07 03:44:59;;;;;;;5.35;2.20;;;21.10;45.90;;;;;;5120618;27;43523;-62
2022/04/07 03:47:26;;;;;;;5.88;2.28;;;21.10;45.90;;;;;;5062270;27;43805;-61
2022/04/07 03:49:54;;;;;;;3.55;1.90;;;21.00;45.90;;;;;;5061077;27;43667;-62
2022/04/07 03:52:21;;;;;;;5.45;2.22;;;21.00;45.90;;;;;;5097651;27;43435;-62
2022/04/07 03:54:49;;;;;;;3.65;1.90;;;21.00;45.90;;;;;;5129200;27;43469;-62
2022/04/07 03:57:16;;;;;;;4.70;2.05;;;21.00;45.90;;;;;;5060416;27;44963;-62
2022/04/07 03:59:44;;;;;;;4.65;2.05;;;21.00;45.90;;;;;;5061166;27;43662;-61
2022/04/07 04:02:12;;;;;;;6.38;2.00;;;21.00;45.90;;;;;;5075626;27;43491;-62
2022/04/07 04:04:45;;;;;;;6.07;2.60;;;21.00;45.90;;;;;;5059629;27;44054;-62
2022/04/07 04:07:12;;;;;;;5.18;2.47;;;21.00;45.80;;;;;;5060559;27;44714;-62
2022/04/07 04:09:40;;;;;;;5.70;2.50;;;21.00;45.80;;;;;;5060241;27;43425;-62
2022/04/07 04:12:08;;;;;;;5.28;2.28;;;20.90;45.70;;;;;;5058513;27;43551;-62
2022/04/07 04:14:36;;;;;;;4.75;2.20;;;21.00;45.70;;;;;;5046076;27;43602;-62
2022/04/07 04:17:03;;;;;;;5.25;2.28;;;20.90;45.70;;;;;;5060267;27;43868;-62
2022/04/07 04:19:33;;;;;;;6.03;2.70;;;21.00;45.70;;;;;;5060173;27;43941;-62
2022/04/07 04:22:00;;;;;;;7.63;2.50;;;20.90;45.70;;;;;;5053073;27;43400;-62
2022/04/07 04:24:28;;;;;;;6.68;2.22;;;21.00;45.80;;;;;;5098703;27;43506;-62
2022/04/07 04:27:00;;;;;;;5.13;2.45;;;20.90;45.70;;;;;;5040154;28;44285;-62
2022/04/07 04:29:27;;;;;;;5.60;2.58;;;20.90;45.70;;;;;;5062708;27;43507;-62
2022/04/07 04:31:55;;;;;;;5.10;2.20;;;20.90;45.80;;;;;;5056738;27;43362;-62
2022/04/07 04:34:22;;;;;;;6.70;2.88;;;20.90;45.70;;;;;;5062519;27;43465;-62
2022/04/07 04:36:49;;;;;;;5.40;2.13;;;20.90;45.70;;;;;;5055648;27;44671;-62
2022/04/07 04:39:17;;;;;;;6.22;2.42;;;20.90;45.80;;;;;;5062901;27;43997;-62
2022/04/07 04:41:44;;;;;;;5.32;2.28;;;20.80;45.80;;;;;;5070794;27;43403;-62
2022/04/07 04:44:13;;;;;;;6.85;2.70;;;20.80;45.80;;;;;;5062113;27;43603;-62
2022/04/07 04:46:41;;;;;;;4.95;2.20;;;20.80;45.90;;;;;;5059800;27;44063;-63
2022/04/07 04:49:08;;;;;;;7.32;3.00;;;20.80;45.90;;;;;;5063922;27;43466;-63
2022/04/07 04:51:36;;;;;;;7.05;2.55;;;20.80;46.00;;;;;;5070758;27;43533;-62
2022/04/07 04:54:03;;;;;;;6.88;2.97;;;20.80;45.80;;;;;;5062546;27;43933;-62
2022/04/07 04:56:31;;;;;;;6.28;2.67;;;20.80;45.90;;;;;;5060360;27;43825;-62
2022/04/07 04:58:58;;;;;;;7.13;2.75;;;20.80;45.90;;;;;;5064152;27;43704;-62
2022/04/07 05:01:26;;;;;;;5.40;2.50;;;20.80;45.90;;;;;;5125142;27;43444;-62
2022/04/07 05:03:53;;;;;;;5.97;2.72;;;20.80;46.00;;;;;;5062300;27;43567;-62
2022/04/07 05:06:21;;;;;;;6.75;2.50;;;20.80;46.00;;;;;;5060213;27;45005;-63
2022/04/07 05:08:48;;;;;;;5.32;2.58;;;20.70;45.90;;;;;;5064210;27;43446;-62
2022/04/07 05:11:16;;;;;;;8.00;2.75;;;20.70;46.20;;;;;;5070436;27;43460;-62
2022/04/07 05:13:43;;;;;;;6.38;2.70;;;20.80;46.00;;;;;;5062478;27;43453;-62
2022/04/07 05:16:15;;;;;;;6.25;2.78;;;20.70;45.90;;;;;;5059615;27;44692;-62
2022/04/07 05:18:48;;;;;;;6.50;3.10;;;20.80;45.90;;;;;;5102119;27;43435;-62
2022/04/07 05:21:16;;;;;;;7.65;2.95;;;20.80;45.90;;;;;;5060028;27;43557;-63
2022/04/07 05:23:44;;;;;;;8.00;3.38;;;20.70;46.00;;;;;;5103486;27;43506;-62
2022/04/07 05:26:15;;;;;;;6.90;3.10;;;20.70;46.10;;;;;;5056906;27;44677;-63
2022/04/07 05:28:42;;;;;;;9.93;3.42;;;20.70;46.20;;;;;;5058129;27;43409;-63
2022/04/07 05:31:11;;;;;;;6.57;3.28;;;20.70;46.30;;;;;;5058157;27;43473;-63
2022/04/07 05:33:39;;;;;;;7.57;3.03;;;20.70;46.20;;;;;;5041144;27;43464;-62
2022/04/07 05:36:06;;;;;;;6.45;2.88;;;20.80;46.30;;;;;;5107621;27;43976;-63
2022/04/07 05:38:34;;;;;;;5.38;2.90;;;20.90;46.10;;;;;;5060199;27;43489;-62
2022/04/07 05:41:01;;;;;;;5.97;2.97;;;21.00;46.00;;;;;;5056165;27;43596;-63
2022/04/07 05:43:29;;;;;;;6.20;2.88;;;21.00;45.80;;;;;;5056477;27;43486;-62
2022/04/07 05:45:56;;;;;;;7.57;2.97;;;21.10;45.70;;;;;;5051092;27;44999;-62
2022/04/07 05:48:24;;;;;;;6.35;2.85;;;21.20;45.60;;;;;;5073168;27;43786;-62
2022/04/07 05:50:51;;;;;;;4.43;2.33;;;21.20;45.50;;;;;;5108879;27;44096;-62
2022/04/07 05:53:19;;;;;;;4.45;2.28;;;21.20;45.40;;;;;;5056319;27;43529;-63
2022/04/07 05:55:47;;;;;;;5.57;2.60;;;21.30;45.30;;;;;;5042999;27;43812;-62
2022/04/07 05:58:15;;;;;;;5.05;2.63;;;21.30;45.20;;;;;;5073328;27;43719;-62
2022/04/07 06:00:43;;;;;;;5.07;2.40;;;21.40;45.10;;;;;;5052793;27;43508;-62
2022/04/07 06:03:11;;;;;;;4.93;2.38;;;21.50;45.10;;;;;;5056218;27;43519;-63
2022/04/07 06:05:38;;;;;;;4.47;2.50;;;21.50;45.00;;;;;;5094526;27;44036;-63
2022/04/07 06:08:06;;;;;;;5.53;2.22;;;21.60;44.90;;;;;;5073457;27;43996;-63
2022/04/07 06:10:34;;;;;;;4.75;2.25;;;21.60;44.70;;;;;;5060012;27;43432;-62
2022/04/07 06:13:01;;;;;;;3.83;2.13;;;21.70;44.60;;;;;;5052152;27;43455;-62
2022/04/07 06:15:30;;;;;;;3.78;2.10;;;21.70;44.50;;;;;;5091219;27;43761;-62
2022/04/07 06:17:57;;;;;;;3.78;2.08;;;21.80;44.40;;;;;;5073346;27;43963;-63
2022/04/07 06:20:25;;;;;;;4.95;2.58;;;21.90;44.30;;;;;;5056796;27;43585;-63
2022/04/07 06:22:52;;;;;;;4.28;2.30;;;21.90;44.20;;;;;;5052185;27;43405;-62
2022/04/07 06:25:20;;;;;;;2.90;1.80;;;22.00;44.10;;;;;;5108075;27;43788;-62
2022/04/07 06:27:47;;;;;;;5.53;2.00;;;22.00;44.00;;;;;;5053014;27;43689;-62
2022/04/07 06:30:17;;;;;;;3.38;1.77;;;22.10;44.00;;;;;;5043928;27;44024;-62
2022/04/07 06:32:46;;;;;;;3.17;1.80;;;22.10;43.80;;;;;;5055746;27;43527;-62
2022/04/07 06:35:15;;;;;;;2.58;1.35;;;22.20;43.80;;;;;;5051856;27;44239;-62
2022/04/07 06:37:55;;;;;;;2.10;1.50;;;22.20;43.70;;;;;;5050000;27;44004;-62
2022/04/07 06:40:24;;;;;;;3.05;1.80;;;22.30;43.70;;;;;;5053613;27;43471;-62
2022/04/07 06:42:54;;;;;;;3.55;1.60;;;22.30;43.60;;;;;;5054835;27;43532;-63
2022/04/07 06:45:26;;;;;;;4.20;1.33;;;22.40;43.80;;;;;;5056747;27;44382;-62
2022/04/07 06:47:55;;;;;;;3.85;1.50;;;22.40;43.70;;;;;;5057291;27;43931;-62
2022/04/07 06:50:26;;;;;;;2.53;1.30;;;22.50;43.40;;;;;;5058166;27;43581;-63
2022/04/07 06:52:55;;;;;;;3.03;1.27;;;22.50;43.30;;;;;;5053683;27;43572;-62
2022/04/07 06:55:23;;;;;;;2.97;1.30;;;22.60;43.30;;;;;;5052742;27;43792;-63
2022/04/07 06:57:53;;;;;;;2.88;1.40;;;22.60;43.10;;;;;;5059833;27;43438;-62
2022/04/07 07:00:25;;;;;;;3.20;1.30;;;22.60;43.10;;;;;;5055792;27;43517;-62
2022/04/07 07:02:54;;;;;;;2.15;1.30;;;22.70;43.10;;;;;;5051218;27;43414;-62
2022/04/07 07:05:24;;;;;;;4.20;1.48;;;22.70;43.10;;;;;;5044790;27;43813;-62
2022/04/07 07:07:52;;;;;;;3.22;1.38;;;22.70;43.10;;;;;;5048247;27;43540;-62
2022/04/07 07:10:30;;;;;;;3.80;1.27;;;22.80;43.30;;;;;;5048688;27;43481;-62
2022/04/07 07:12:59;;;;;;;3.45;1.40;;;22.80;43.20;;;;;;5040352;27;43436;-62
2022/04/07 07:15:27;;;;;;;3.67;1.40;;;22.80;43.20;;;;;;5037891;27;44952;-62
2022/04/07 07:17:55;;;;;;;2.00;1.17;;;22.90;43.00;;;;;;5037767;27;43476;-62
2022/04/07 07:20:22;;;;;;;2.58;1.10;;;22.80;43.00;;;;;;5065046;27;43464;-61
2022/04/07 07:22:50;;;;;;;2.97;1.35;;;22.80;43.10;;;;;;5032357;27;43627;-62
2022/04/07 07:25:17;;;;;;;3.03;1.30;;;22.90;43.40;;;;;;5035377;27;44890;-62
2022/04/07 07:27:46;;;;;;;3.65;1.10;;;22.90;43.20;;;;;;5041562;27;43558;-62
2022/04/07 07:30:16;;;;;;;4.50;1.27;;;23.00;43.40;;;;;;5041895;27;43508;-62
2022/04/07 07:32:46;;;;;;;4.85;1.40;;;23.00;43.10;;;;;;5050446;27;43660;-62
2022/04/07 07:35:17;;;;;;;2.63;1.20;;;23.10;43.00;;;;;;5052632;27;43977;-62
2022/04/07 07:38:01;;;;;;;4.53;1.15;;;23.10;43.10;;;;;;5037693;27;43465;-63
2022/04/07 07:40:31;;;;;;;3.35;1.10;;;23.20;43.00;;;;;;5051620;27;43565;-62
2022/04/07 07:43:01;;;;;;;3.03;1.17;;;23.30;42.90;;;;;;5091312;27;43451;-62
2022/04/07 07:45:31;;;;;;;4.77;1.40;;;23.30;42.80;;;;;;5032656;27;43909;-62
2022/04/07 07:48:27;;;;;;;1.60;0.75;;;23.40;42.90;;;;;;5039535;27;43465;-62
2022/04/07 07:50:56;;;;;;;4.10;1.05;;;23.40;42.70;;;;;;5103946;27;43577;-63
2022/04/07 07:53:24;;;;;;;3.67;1.23;;;23.50;42.60;;;;;;5048562;27;44069;-64
2022/04/07 07:55:54;;;;;;;1.75;0.90;;;23.50;42.30;;;;;;5045870;27;44405;-64
2022/04/07 07:58:24;;;;;;;4.82;1.02;;;23.60;42.40;;;;;;5036159;27;44013;-63
2022/04/07 08:00:52;;;;;;;1.77;0.80;;;23.60;42.40;;;;;;5103307;27;43504;-64
2022/04/07 08:03:19;;;;;;;3.25;0.90;;;23.60;42.40;;;;;;5057222;27;43439;-64
2022/04/07 08:05:47;;;;;;;1.77;1.23;;;23.60;42.40;;;;;;5035198;27;44046;-63
2022/04/07 08:08:15;;;;;;;2.17;0.80;;;23.60;42.30;;;;;;5036606;27;43696;-63
2022/04/07 08:10:43;;;;;;;1.38;0.70;;;23.60;42.40;;;;;;5046016;27;43456;-65
2022/04/07 08:13:11;;;;;;;2.45;1.08;;;23.60;42.30;;;;;;5038775;27;43439;-64
2022/04/07 08:15:38;;;;;;;3.30;0.90;;;23.70;42.40;;;;;;5046523;27;43996;-63
2022/04/07 08:18:07;;;;;;;2.92;1.10;;;23.60;42.20;;;;;;5106663;27;43641;-63
2022/04/07 08:20:34;;;;;;;2.50;0.90;;;23.70;42.40;;;;;;5043741;27;44097;-64
2022/04/07 08:23:03;;;;;;;2.80;1.05;;;23.60;42.30;;;;;;5095556;27;43630;-63
2022/04/07 08:25:30;;;;;;;2.10;0.90;;;23.60;42.20;;;;;;5098775;27;44742;-63
2022/04/07 08:27:58;;;;;;;1.63;0.77;;;23.70;42.30;;;;;;5056144;27;43488;-64
2022/04/07 08:30:25;;;;;;;1.63;0.95;;;23.60;42.40;;;;;;5050771;27;43485;-62
2022/04/07 08:32:52;;;;;;;3.72;1.15;;;23.60;42.50;;;;;;5094916;27;43467;-63
2022/04/07 08:35:20;;;;;;;2.45;0.98;;;23.60;42.30;;;;;;5061288;27;43567;-63
2022/04/07 08:37:47;;;;;;;1.75;1.15;;;23.60;42.30;;;;;;5048757;27;43747;-64
2022/04/07 08:40:18;;;;;;;2.70;1.10;;;23.50;42.20;;;;;;5071462;27;43521;-63
2022/04/07 08:42:45;;;;;;;2.15;1.10;;;23.50;42.40;;;;;;5047578;27;43493;-63
2022/04/07 08:45:13;;;;;;;1.63;0.90;;;23.50;42.40;;;;;;5053170;27;44100;-63
2022/04/07 08:47:41;;;;;;;2.38;1.05;;;23.40;42.30;;;;;;5042539;27;43466;-63
2022/04/07 08:50:12;;;;;;;2.22;1.10;;;23.40;42.20;;;;;;5033674;27;43441;-63
2022/04/07 08:52:40;;;;;;;1.45;0.90;;;23.40;42.40;;;;;;5089834;27;43515;-63
2022/04/07 08:55:09;;;;;;;1.67;0.90;;;23.40;42.40;;;;;;5059075;27;44781;-63
2022/04/07 08:57:39;;;;;;;3.03;1.08;;;23.40;42.40;;;;;;5096316;27;43737;-64
2022/04/07 09:00:07;;;;;;;2.88;1.15;;;23.40;42.40;;;;;;5073468;27;43477;-63
2022/04/07 09:02:35;;;;;;;2.58;1.13;;;23.40;42.50;;;;;;5052130;27;43506;-64
2022/04/07 09:05:08;;;;;;;3.25;0.95;;;23.40;42.50;;;;;;5051692;27;45032;-63
2022/04/07 09:07:36;;;;;;;2.70;1.23;;;23.40;42.40;;;;;;5081385;27;43600;-64
2022/04/07 09:10:05;;;;;;;3.17;1.00;;;23.50;43.20;;;;;;5075476;27;43523;-63
2022/04/07 09:12:38;;;;;;;3.83;1.30;;;23.50;42.40;;;;;;5054525;27;43521;-63
2022/04/07 09:15:07;;;;;;;2.85;1.08;;;23.50;42.40;;;;;;5046447;27;43785;-63
2022/04/07 09:17:52;;;;;;;4.95;1.58;;;23.60;42.30;;;;;;5068975;27;43981;-63
2022/04/07 09:20:24;;;;;;;4.70;1.42;;;23.60;42.20;;;;;;5054440;27;43565;-63
2022/04/07 09:22:56;;;;;;;4.00;1.40;;;23.60;42.20;;;;;;5065114;27;43461;-65
2022/04/07 09:25:25;;;;;;;6.80;1.63;;;23.60;42.30;;;;;;5077807;27;44018;-64
2022/04/07 09:27:53;;;;;;;7.63;1.92;;;23.70;42.20;;;;;;5052948;27;43979;-64
2022/04/07 09:30:21;;;;;;;4.32;1.33;;;23.70;42.20;;;;;;5036374;27;43550;-64
2022/04/07 09:32:49;;;;;;;20.75;2.67;;;23.70;42.10;;;;;;5050530;27;43505;-63
2022/04/07 09:35:16;;;;;;;7.00;1.50;;;23.70;42.00;;;;;;5033986;27;44737;-63
2022/04/07 09:37:44;;;;;;;7.10;1.65;;;23.70;42.00;;;;;;5032821;27;43804;-63
2022/04/07 09:40:15;;;;;;;4.90;1.48;;;23.70;41.80;;;;;;5058433;27;44069;-63
2022/04/07 09:42:44;;;;;;;8.95;1.73;;;23.70;41.90;;;;;;5064100;27;43486;-63
2022/04/07 09:45:13;;;;;;;4.32;1.77;;;23.60;41.90;;;;;;5035327;27;43941;-62
2022/04/07 09:47:49;;;;;;;6.03;1.50;;;23.60;42.10;;;;;;5033558;27;43507;-62
2022/04/07 09:50:19;;;;;;;7.00;1.73;;;23.60;42.00;;;;;;5045125;27;43488;-63
2022/04/07 09:53:04;;;;;;;3.87;1.23;;;23.60;42.10;;;;;;5031585;27;43477;-63
2022/04/07 09:55:37;;;;;;;2.58;1.48;;;23.50;42.00;;;;;;5045325;27;43786;-63
2022/04/07 09:58:07;;;;;;;5.10;1.45;;;23.50;42.10;;;;;;5082401;27;43724;-63
2022/04/07 10:00:35;;;;;;;5.60;1.65;;;23.50;42.10;;;;;;5048824;27;43494;-62
2022/04/07 10:03:04;;;;;;;5.43;1.75;;;23.50;42.10;;;;;;5035026;27;43540;-63
2022/04/07 10:05:32;;;;;;;2.70;1.40;;;23.50;42.00;;;;;;5086750;27;43813;-62
2022/04/07 10:08:01;;;;;;;4.88;1.60;;;23.50;42.20;;;;;;5036830;27;43527;-63
2022/04/07 10:10:30;;;;;;;4.07;1.58;;;23.40;41.90;;;;;;5066482;27;43548;-63
2022/04/07 10:13:00;;;;;;;3.92;1.40;;;23.40;41.90;;;;;;5030724;27;43502;-62
2022/04/07 10:15:29;;;;;;;4.85;1.35;;;23.40;42.10;;;;;;5045372;27;44647;-63
2022/04/07 10:18:01;;;;;;;3.85;1.67;;;23.40;42.10;;;;;;5102207;27;43452;-64
2022/04/07 10:20:37;;;;;;;3.22;1.77;;;23.40;42.00;;;;;;5046814;27;43464;-63
2022/04/07 10:23:42;;;;;;;4.22;1.85;;;23.40;42.00;;;;;;5037512;27;43511;-63
2022/04/07 10:26:12;;;;;;;5.03;2.00;;;23.30;42.00;;;;;;5038093;27;43803;-63
2022/04/07 10:28:41;;;;;;;3.50;1.50;;;23.30;42.10;;;;;;5088817;27;43784;-62
2022/04/07 10:31:14;;;;;;;4.03;1.90;;;23.20;42.10;;;;;;5054979;27;43427;-63
2022/04/07 10:33:46;;;;;;;5.28;1.77;;;23.20;42.10;;;;;;5075055;27;43604;-63
2022/04/07 10:36:23;;;;;;;4.82;1.85;;;23.20;42.00;;;;;;5047614;27;43782;-63
2022/04/07 10:38:52;;;;;;;4.65;2.10;;;23.10;42.00;;;;;;5059298;27;43502;-63
2022/04/07 10:41:36;;;;;;;6.38;2.28;;;23.10;42.60;;;;;;5092555;27;43600;-63
2022/04/07 10:44:11;;;;;;;4.82;1.60;;;23.10;41.90;;;;;;5038099;27;43963;-63
2022/04/07 10:46:39;;;;;;;4.28;1.77;;;23.10;42.00;;;;;;5049481;27;43812;-63
2022/04/07 10:49:09;;;;;;;3.60;1.73;;;23.00;42.70;;;;;;5042744;27;43697;-62
2022/04/07 10:51:47;;;;;;;5.00;1.63;;;23.00;42.30;;;;;;5050905;27;44054;-63
2022/04/07 10:54:15;;;;;;;4.75;1.90;;;23.00;42.10;;;;;;5051978;27;43547;-63
2022/04/07 10:56:48;;;;;;;3.63;1.67;;;23.00;42.20;;;;;;5041532;27;45160;-62
2022/04/07 10:59:21;;;;;;;4.65;1.88;;;23.00;42.10;;;;;;5035620;27;43539;-64
2022/04/07 11:01:56;;;;;;;4.57;2.05;;;23.00;42.20;;;;;;5043397;27;43412;-64
2022/04/07 11:04:24;;;;;;;4.75;1.98;;;23.00;42.30;;;;;;5052106;27;43507;-63
2022/04/07 11:09:54;;;;;;;5.03;2.00;;;23.00;42.20;;;;;;5040099;27;43530;-63
2022/04/07 11:12:34;;;;;;;5.13;2.00;;;22.80;42.10;;;;;;5057305;27;43462;-64
2022/04/07 11:15:02;;;;;;;2.72;1.40;;;22.80;42.30;;;;;;5039137;27;43564;-64
2022/04/07 11:17:35;;;;;;;3.47;1.90;;;22.80;42.40;;;;;;5033090;27;43778;-64
2022/04/07 11:20:22;;;;;;;4.40;1.85;;;22.80;42.40;;;;;;5044706;27;43433;-63
2022/04/07 11:22:51;;;;;;;3.60;1.83;;;22.70;42.30;;;;;;5071926;27;43453;-63
2022/04/07 11:25:29;;;;;;;5.03;2.00;;;22.70;42.40;;;;;;5057254;27;43479;-67
2022/04/07 11:28:14;;;;;;;5.55;2.17;;;22.70;43.10;;;;;;5051167;27;44060;-63
2022/04/07 11:30:44;;;;;;;4.10;1.88;;;22.80;42.30;;;;;;5055851;27;43900;-62
2022/04/07 11:33:29;;;;;;;4.07;2.00;;;22.70;42.20;;;;;;5054531;27;44089;-62
2022/04/07 11:36:07;;;;;;;4.22;1.80;;;22.70;42.30;;;;;;5038977;27;43568;-63
2022/04/07 11:38:37;;;;;;;8.38;2.20;;;22.70;42.30;;;;;;5043408;27;43802;-62
2022/04/07 11:41:08;;;;;;;5.95;2.30;;;22.60;41.90;;;;;;5055513;27;43999;-62
2022/04/07 11:43:38;;;;;;;5.60;2.08;;;22.50;42.20;;;;;;5050779;27;43495;-62
2022/04/07 11:46:06;;;;;;;4.22;2.33;;;22.50;42.00;;;;;;5044081;27;43500;-62
2022/04/07 11:48:58;;;;;;;4.65;1.85;;;22.50;42.00;;;;;;5053673;27;43956;-64
2022/04/07 11:51:27;;;;;;;5.63;2.40;;;22.50;42.10;;;;;;5036019;27;43420;-62
2022/04/07 11:53:56;;;;;;;4.88;2.17;;;22.50;42.20;;;;;;5040833;27;43519;-62
2022/04/07 11:56:26;;;;;;;5.18;2.35;;;22.50;42.20;;;;;;5038565;27;43548;-62
2022/04/07 11:58:54;;;;;;;4.37;2.23;;;22.40;42.00;;;;;;5037325;27;45004;-62
2022/04/07 12:01:23;;;;;;;3.95;2.00;;;22.40;42.00;;;;;;5039971;27;43480;-63
2022/04/07 12:03:55;;;;;;;5.45;2.20;;;22.40;42.00;;;;;;5049654;27;43470;-62
2022/04/07 12:06:24;;;;;;;4.22;1.80;;;22.30;41.90;;;;;;5080396;27;43545;-62
2022/04/07 12:08:52;;;;;;;4.03;2.10;;;22.40;41.90;;;;;;5043612;27;44074;-62
2022/04/07 12:11:20;;;;;;;6.10;1.90;;;22.30;41.70;;;;;;5052208;27;44173;-62
2022/04/07 12:13:50;;;;;;;5.13;2.15;;;22.30;42.20;;;;;;5056632;27;43599;-62
2022/04/07 12:16:19;;;;;;;4.55;1.92;;;22.30;42.10;;;;;;5044050;27;43571;-62
2022/04/07 12:18:58;;;;;;;3.70;1.80;;;22.20;41.90;;;;;;5038140;27;43788;-62
2022/04/07 12:21:27;;;;;;;3.47;1.67;;;22.20;42.10;;;;;;5041505;27;43405;-62
2022/04/07 12:24:11;;;;;;;4.20;1.70;;;22.20;42.30;;;;;;5037367;27;43512;-61
2022/04/07 12:26:43;;;;;;;4.15;1.70;;;22.10;42.30;;;;;;5043054;27;43473;-61
2022/04/07 12:29:15;;;;;;;4.18;1.60;;;22.10;42.40;;;;;;5033333;27;43860;-61
2022/04/07 12:31:43;;;;;;;2.42;1.83;;;22.00;42.40;;;;;;5078997;27;43794;-62
2022/04/07 12:34:19;;;;;;;3.85;1.55;;;21.90;42.40;;;;;;5050975;27;43465;-62
2022/04/07 12:36:46;;;;;;;;;;;21.90;42.50;;;;;;5038368;27;43450;-60
2022/04/07 12:39:15;;;;;;;2.53;1.13;;;21.80;43.10;;;;;;5066963;27;44054;-63
2022/04/07 12:41:54;;;;;;;4.70;1.65;;;21.80;42.70;;;;;;5059891;27;43476;-62
2022/04/07 12:44:26;;;;;;;2.90;1.45;;;21.80;42.70;;;;;;5046304;27;43509;-61
2022/04/07 12:47:01;;;;;;;2.90;1.52;;;21.70;42.70;;;;;;5042630;27;43658;-62
2022/04/07 12:49:35;;;;;;;4.82;1.35;;;21.70;42.90;;;;;;5046795;27;44793;-62
2022/04/07 12:52:11;;;;;;;4.32;1.88;;;21.70;43.00;;;;;;5035300;27;43804;-61
2022/04/07 12:55:02;;;;;;;6.70;2.20;;;21.70;43.20;;;;;;5041230;27;43462;-61
2022/04/07 12:57:34;;;;;;;;;;;21.70;43.30;;;;;;5028457;27;43605;-62
2022/04/07 13:00:21;;;;;;;4.35;1.80;;;21.60;43.20;;;;;;5052808;27;43832;-62
2022/04/07 13:02:54;;;;;;;4.47;1.75;;;21.60;43.30;;;;;;5035297;27;43524;-62